Airport View

Enter AWOS ICAO identifier for current METAR.

ex. KFNL

KEZS 051125Z AUTO 00000KT 7SM CLR 22/21 A2999 RMK AO2 T02150206

5 Jul 2020 11:22

Frequency: 118.65

Phone: 715-526-2967

Other Area AWOS: KCLI - KGRB - KOCQ - KATW

TAF AMD KGRB 050903Z 0509/0606 VRB02KT P6SM SCT050 BKN250 FM051500 23006KT P6SM SCT050 BKN140